Pagrindinis puslapis
METAR-TAF:

METAR-TAF

Oro uostai :

Russian Mission, Aliaska, Jungtinės Amerikos Valstijos

platuma: 61-46-30N, ilguma: 161-19-10W, Aukštis: 16 m

Dabartinis oras

Ataskaita buvo paskelbta 43 minutes, ne 23:07 UTC
Vėjas 5 kt iš Pietų
Temperatūra 9°C
Drėgmė 66%
Slėgis 1018 hPa
Matomumas: 16.1 km
Apsiniaukę ne aukštis 3100 ft

METAR: PARS 052307Z AUTO 18005KT 10SM OVC031 09/03 A3005 RMK AO2 $

Laikas: 15:50 (23:50 UTC)


TAF: trūkstamas

Orai ataskaitas ir orų prognozės (METAR, TAF).

turimą stotys yra geltonos ir raudonos taškus žemėlapyje.

Perkelti pele per norėdami pamatyti stoties vardą.

Tada spustelėkite, norėdami matyti oro stebėjimo ir prognozės.

Norėdami pakeisti žemėlapį: spustelėkite ant žalios mygtukų su juodo kryžiaus žemyn,; žalią mygtuką su brūkšneliu, jei norite nutolinti; arba žalių rodyklių gretimoms žemėlapius.


METAR-TAF: